Tropical Cyclones
[Index]
Main Index Home Page Stock Weather Photos Extreme Storms Discussion Storm News and Storm Chasing Reports Tropical Cyclones / Hurricanes / Typhoons Weather Data and Links Wild Fires / Bushfires Weather Observation Techniques Weather Picture Catalogue Tornado Pictures and Reports Stock Video Footage and DVDs for sale
Season 2012-2013 Tropical Cyclone HARUNA Track Map
Season 2012-2013 Summaries (Operational Data): [AU] [SIO] [SPAC] [SH]
<<- Previous TC | 2012-2013 Season | Next TC ->>

click for intensity scale information  Lat/long Grid: Show Hide

 Date Labels: Show Hide

Operational Tropical Cyclone Data : JTWC Advisories

Name: HARUNA
Number: 1316

13 Feb 2013 12:00 UTC to 01 Mar 2013 00:00 UTC

    date/time    lat    long     hPa   cat  kts
2013-02-13 12   19.1    43.2    1010         15          
2013-02-13 18   19.6    42.8    1010         15          
2013-02-14 00   19.0    42.9    1010         15          
2013-02-14 06   19.4    42.6    1010         15          
2013-02-14 12   19.8    42.1    1010         15          
2013-02-14 18   20.3    41.6    1010         15          
2013-02-15 00   20.5    41.0    1007         20          
2013-02-15 06   20.9    40.6    1004         25          
2013-02-15 12   21.1    39.8    1004         25          
2013-02-15 18   20.4    39.4    1004         25          
2013-02-16 00   19.5    38.8    1004         25          
2013-02-16 06   18.7    38.1    1004         25          
2013-02-16 12   17.3    37.8    1004         25          
2013-02-16 18   16.6    38.2    1004         25          
2013-02-17 00   16.3    39.0    1004         25          
2013-02-17 06   17.0    39.8    1004         25          
2013-02-17 12   18.0    40.1    1004         25          
2013-02-17 18   18.6    40.2    1004         25          
2013-02-18 00   19.0    40.3    1000         30          
2013-02-18 06   19.4    40.5    1000         30          
2013-02-18 12   19.6    40.7    1000         30          
2013-02-18 18   19.8    40.9    1000         30          
2013-02-19 00   20.2    41.0     996    1    35          
2013-02-19 06   20.8    41.0     996    1    35          
2013-02-19 12   21.1    41.0     993    1    40          
2013-02-19 18   21.4    41.1     989    1    45          
2013-02-19 21   21.6    40.9     989    1    45          
2013-02-20 00   21.7    40.9     982    2    55          
2013-02-20 06   21.9    40.9     978    2    60          
2013-02-20 12   22.1    41.0     970    3    70          
2013-02-20 18   22.3    41.1     956    4    90          
2013-02-21 00   22.4    41.3     952    4    95          
2013-02-21 06   22.4    41.6     948    4   100          
2013-02-21 12   22.3    41.9     948    4   100          
2013-02-21 18   22.2    42.3     956    4    90          
2013-02-22 00   22.2    43.0     956    4    90          
2013-02-22 06   22.5    43.7     959    3    85          
2013-02-22 12   23.1    44.3     963    3    80          
2013-02-22 18   23.7    45.3     970    3    70          
2013-02-23 00   24.4    46.4     978    2    60          
2013-02-23 06   25.3    47.8     985    2    50          
2013-02-23 12   25.6    48.9     989    1    45          
2013-02-23 18   26.0    49.9     989    1    45          
2013-02-24 00   26.2    51.0     989    1    45          
2013-02-24 06   26.6    52.4     993    1    40          
2013-02-24 12   27.2    54.1     993    1    40          
2013-02-24 18   27.5    55.9     993    1    40          
2013-02-25 00   27.0    57.5     996    1    35          
2013-02-25 06   26.9    58.9    1000         30          
2013-02-25 12   27.4    59.9    1000         30          
2013-02-25 18   27.3    61.4    1000         30          
2013-02-26 00   27.3    62.3    1000         30          
2013-02-26 06   27.4    62.8    1000         30          
2013-02-26 12   27.1    63.2    1000         30          
2013-02-26 18   26.8    62.8    1000         30          
2013-02-27 00   26.1    62.3    1000         30          
2013-02-27 06   25.4    61.4    1004         25          
2013-02-27 12   24.9    60.5    1004         25          
2013-02-27 18   24.6    59.6    1004         25          
2013-02-28 00   24.3    58.2    1004         25          
2013-02-28 06   23.9    57.2    1004         25          
2013-02-28 12   23.9    55.1    1004         25          
2013-02-28 18   24.3    53.5    1004         25          
2013-03-01 00   24.8    52.3    1004         25          
Winds are 10-min average.

Tropical cyclone tracks developed by Michael Bath using operational warnings and advisories and Google Maps.


[Australian Severe Weather index] [Copyright Notice] [Email Contacts] [Search This Site] [Privacy Policy]
Document: tropical_cyclone_haruna.htm Updated: 2 May 2017